createdAt,value
2023-11-22T00:01:00.172Z,4.39
2023-11-22T00:03:26.844Z,4.52
2023-11-22T00:05:53.305Z,4.62
2023-11-22T00:08:19.872Z,4.65
2023-11-22T00:10:46.388Z,4.59
2023-11-22T00:13:12.910Z,4.51
2023-11-22T00:15:39.394Z,4.50
2023-11-22T00:18:06.033Z,4.44
2023-11-22T00:20:32.733Z,4.47
2023-11-22T00:22:59.276Z,4.52
2023-11-22T00:25:25.994Z,4.50
2023-11-22T00:27:52.587Z,4.46
2023-11-22T00:30:19.214Z,4.42
2023-11-22T00:32:45.802Z,4.37
2023-11-22T00:35:12.466Z,4.37
2023-11-22T00:37:39.053Z,4.30
2023-11-22T00:40:11.709Z,4.27
2023-11-22T00:42:40.791Z,4.16
2023-11-22T00:45:08.010Z,4.23
2023-11-22T00:47:34.785Z,4.14
2023-11-22T00:50:02.355Z,4.04
2023-11-22T00:52:28.772Z,4.15
2023-11-22T00:54:55.650Z,4.10
2023-11-22T00:57:22.131Z,4.11
2023-11-22T00:59:49.214Z,4.05
2023-11-22T01:02:15.999Z,4.00
2023-11-22T01:04:42.544Z,3.94
2023-11-22T01:07:09.027Z,3.74
2023-11-22T01:09:35.729Z,3.75
2023-11-22T01:12:02.586Z,3.83
2023-11-22T01:14:29.440Z,3.80
2023-11-22T01:16:56.705Z,3.68
2023-11-22T01:19:23.247Z,3.70
2023-11-22T01:21:49.848Z,3.91
2023-11-22T01:24:16.458Z,3.99
2023-11-22T01:26:43.063Z,4.01
2023-11-22T01:29:09.652Z,3.97
2023-11-22T01:31:36.151Z,3.90
2023-11-22T01:34:02.737Z,3.86
2023-11-22T01:36:29.230Z,3.87
2023-11-22T01:38:56.991Z,4.04
2023-11-22T01:41:23.695Z,4.10
2023-11-22T01:43:51.703Z,4.13
2023-11-22T01:46:27.047Z,4.16
2023-11-22T01:48:55.135Z,4.11
2023-11-22T01:51:22.850Z,4.08
2023-11-22T01:53:54.434Z,4.09
2023-11-22T01:56:27.553Z,4.18
2023-11-22T01:58:55.802Z,4.26
2023-11-22T02:01:22.329Z,4.23
2023-11-22T02:03:49.129Z,4.37
2023-11-22T02:06:18.805Z,4.37
2023-11-22T02:08:45.396Z,4.35
2023-11-22T02:11:12.169Z,4.41
2023-11-22T02:13:38.693Z,4.42
2023-11-22T02:16:06.010Z,4.50
2023-11-22T02:18:32.926Z,4.61
2023-11-22T02:20:59.783Z,4.70
2023-11-22T02:23:26.393Z,4.81
2023-11-22T02:25:52.934Z,4.76
2023-11-22T02:28:19.450Z,4.77
2023-11-22T02:30:45.938Z,4.76
2023-11-22T02:33:12.455Z,4.83
2023-11-22T02:35:39.994Z,4.84
2023-11-22T02:38:06.673Z,4.78
2023-11-22T02:40:33.376Z,4.74
2023-11-22T02:43:02.139Z,4.69
2023-11-22T02:45:29.941Z,4.69
2023-11-22T02:47:56.642Z,4.71
2023-11-22T02:50:23.489Z,4.71
2023-11-22T02:52:50.113Z,4.70
2023-11-22T02:55:16.709Z,4.48
2023-11-22T02:57:43.278Z,4.64
2023-11-22T03:00:17.257Z,4.67
2023-11-22T03:02:44.098Z,4.63
2023-11-22T03:05:11.045Z,4.69
2023-11-22T03:07:38.623Z,4.87
2023-11-22T03:10:06.125Z,4.90
2023-11-22T03:12:32.634Z,4.93
2023-11-22T03:14:59.810Z,4.88
2023-11-22T03:17:27.155Z,4.71
2023-11-22T03:19:53.625Z,4.80
2023-11-22T03:22:20.837Z,4.77
2023-11-22T03:24:47.332Z,4.85
2023-11-22T03:27:13.791Z,4.86
2023-11-22T03:29:40.290Z,4.82
2023-11-22T03:32:07.316Z,4.89
2023-11-22T03:34:33.930Z,4.92
2023-11-22T03:37:00.429Z,4.96
2023-11-22T03:39:27.961Z,4.99
2023-11-22T03:41:54.342Z,4.94
2023-11-22T03:44:20.885Z,4.87
2023-11-22T03:46:47.435Z,5.02
2023-11-22T03:49:14.539Z,5.15
2023-11-22T03:51:43.070Z,5.15
2023-11-22T03:54:11.152Z,5.19
2023-11-22T03:56:38.040Z,5.20
2023-11-22T03:59:04.716Z,5.17
2023-11-22T04:01:31.965Z,5.17
2023-11-22T04:03:58.693Z,5.21
2023-11-22T04:06:25.465Z,5.20
2023-11-22T04:08:54.217Z,5.22
2023-11-22T04:11:20.750Z,5.18
2023-11-22T04:13:47.246Z,5.30
2023-11-22T04:16:14.185Z,5.38
2023-11-22T04:18:42.195Z,5.39
2023-11-22T04:21:09.899Z,5.33
2023-11-22T04:23:37.650Z,5.26
2023-11-22T04:26:04.560Z,5.30
2023-11-22T04:28:31.291Z,5.34
2023-11-22T04:30:58.252Z,5.41
2023-11-22T04:33:26.153Z,5.41
2023-11-22T04:35:52.786Z,5.42
2023-11-22T04:38:19.427Z,5.41
2023-11-22T04:40:46.648Z,5.39
2023-11-22T04:43:13.168Z,5.44
2023-11-22T04:45:40.052Z,5.50
2023-11-22T04:48:10.791Z,5.52
2023-11-22T04:50:37.486Z,5.52
2023-11-22T04:53:04.178Z,5.55
2023-11-22T04:55:31.006Z,5.55
2023-11-22T04:57:57.531Z,5.63
2023-11-22T05:00:24.124Z,5.69
2023-11-22T05:02:50.777Z,5.67
2023-11-22T05:05:17.689Z,5.70
2023-11-22T05:07:45.784Z,5.69
2023-11-22T05:10:12.915Z,5.75
2023-11-22T05:12:39.938Z,5.73
2023-11-22T05:15:08.576Z,5.67
2023-11-22T05:17:35.509Z,5.72
2023-11-22T05:20:02.913Z,5.61
2023-11-22T05:22:29.392Z,5.63
2023-11-22T05:24:57.259Z,5.56
2023-11-22T05:27:23.849Z,5.54
2023-11-22T05:29:55.068Z,5.47
2023-11-22T05:32:22.619Z,5.56
2023-11-22T05:34:49.253Z,5.56
2023-11-22T05:37:15.912Z,5.49
2023-11-22T05:39:42.582Z,5.44
2023-11-22T05:42:09.094Z,5.43
2023-11-22T05:44:35.665Z,5.45
2023-11-22T05:47:02.197Z,5.40
2023-11-22T05:49:29.484Z,5.37
2023-11-22T05:51:56.077Z,5.35
2023-11-22T05:54:22.655Z,5.30
2023-11-22T05:56:49.274Z,5.28
2023-11-22T05:59:15.945Z,5.25
2023-11-22T06:01:42.425Z,5.22
2023-11-22T06:04:10.994Z,5.19
2023-11-22T06:06:38.132Z,5.15
2023-11-22T06:09:06.769Z,5.09
2023-11-22T06:11:33.417Z,5.05
2023-11-22T06:13:59.994Z,5.12
2023-11-22T06:16:26.663Z,5.06
2023-11-22T06:18:53.177Z,4.93
2023-11-22T06:21:20.185Z,4.93
2023-11-22T06:23:46.969Z,4.85
2023-11-22T06:26:15.814Z,4.83
2023-11-22T06:28:42.885Z,4.85
2023-11-22T06:31:09.397Z,4.88
2023-11-22T06:33:37.203Z,4.78
2023-11-22T06:36:04.625Z,4.86
2023-11-22T06:38:31.177Z,4.73
2023-11-22T06:40:57.728Z,4.71
2023-11-22T06:43:24.298Z,4.78
2023-11-22T06:45:51.838Z,4.87
2023-11-22T06:48:19.205Z,4.95
2023-11-22T06:50:46.375Z,4.95
2023-11-22T06:53:13.028Z,4.98
2023-11-22T06:55:39.799Z,5.03
2023-11-22T06:58:07.472Z,5.08
2023-11-22T07:00:34.022Z,5.13
2023-11-22T07:03:00.800Z,5.20
2023-11-22T07:05:27.550Z,5.20
2023-11-22T07:07:56.792Z,5.14
2023-11-22T07:10:23.560Z,5.28
2023-11-22T07:12:50.246Z,5.37
2023-11-22T07:15:16.711Z,5.42
2023-11-22T07:17:43.327Z,5.55
2023-11-22T07:20:14.094Z,5.64
2023-11-22T07:22:44.016Z,5.75
2023-11-22T07:25:19.366Z,5.82
2023-11-22T07:27:47.058Z,5.95
2023-11-22T07:30:14.456Z,6.02
2023-11-22T07:32:43.927Z,6.06
2023-11-22T07:35:11.068Z,6.13
2023-11-22T07:37:40.343Z,6.21
2023-11-22T07:40:09.506Z,6.27
2023-11-22T07:42:36.954Z,6.30
2023-11-22T07:45:03.514Z,6.37
2023-11-22T07:47:30.116Z,6.42
2023-11-22T07:49:56.779Z,6.45
2023-11-22T07:52:24.036Z,6.49
2023-11-22T07:54:50.546Z,6.55
2023-11-22T07:57:17.071Z,6.58
2023-11-22T07:59:43.658Z,6.69
2023-11-22T08:02:12.930Z,6.75
2023-11-22T08:04:39.740Z,6.78
2023-11-22T08:07:06.260Z,6.78
2023-11-22T08:09:33.841Z,6.84
2023-11-22T08:12:06.191Z,6.93
2023-11-22T08:14:33.778Z,6.93
2023-11-22T08:17:00.706Z,6.98
2023-11-22T08:19:28.687Z,7.05
2023-11-22T08:21:55.450Z,7.04
2023-11-22T08:24:22.519Z,7.13
2023-11-22T08:26:49.143Z,7.13
2023-11-22T08:29:15.835Z,7.23
2023-11-22T08:31:42.453Z,7.24
2023-11-22T08:34:10.156Z,7.24
2023-11-22T08:36:36.943Z,7.31
2023-11-22T08:39:04.870Z,7.36
2023-11-22T08:41:33.326Z,7.33
2023-11-22T08:44:09.302Z,7.38
2023-11-22T08:46:36.246Z,7.39
2023-11-22T08:49:03.887Z,7.44
2023-11-22T08:51:30.405Z,7.50
2023-11-22T08:53:57.093Z,7.53
2023-11-22T08:56:23.813Z,7.56
2023-11-22T08:58:50.416Z,7.54
2023-11-22T09:01:17.104Z,7.50
2023-11-22T09:03:45.008Z,7.50
2023-11-22T09:06:11.688Z,7.54
2023-11-22T09:08:39.286Z,7.50
2023-11-22T09:11:08.211Z,7.56
2023-11-22T09:13:36.308Z,7.65
2023-11-22T09:16:06.497Z,7.59
2023-11-22T09:18:34.040Z,7.56
2023-11-22T14:19:32.692Z,8.06
2023-11-22T14:21:59.238Z,8.16
2023-11-22T14:24:38.107Z,8.22
2023-11-22T14:27:05.062Z,8.24
2023-11-22T14:29:32.410Z,8.24
2023-11-22T14:31:58.831Z,8.25
2023-11-22T14:34:26.226Z,8.26
2023-11-22T14:36:52.850Z,8.23
2023-11-22T14:39:20.150Z,8.24
2023-11-22T14:41:46.669Z,8.18
2023-11-22T14:44:13.231Z,8.14
2023-11-22T14:46:39.721Z,8.12
2023-11-22T14:49:07.001Z,8.09
2023-11-22T14:51:34.860Z,8.10
2023-11-22T14:54:01.966Z,8.09
2023-11-22T14:56:28.722Z,8.10
2023-11-22T14:58:55.506Z,8.09
2023-11-22T15:01:22.439Z,8.13
2023-11-22T15:03:50.287Z,8.14
2023-11-22T15:06:16.902Z,8.19
2023-11-22T15:08:43.437Z,8.20
2023-11-22T15:11:12.534Z,8.13
2023-11-22T15:13:39.130Z,8.10
2023-11-22T15:16:06.586Z,8.04
2023-11-22T15:18:33.222Z,8.00
2023-11-22T15:20:59.865Z,8.03
2023-11-22T15:23:26.469Z,7.85
2023-11-22T15:25:55.115Z,7.85
2023-11-22T15:28:24.427Z,7.85
2023-11-22T15:30:51.179Z,7.74
2023-11-22T15:33:17.762Z,7.65
2023-11-22T15:35:44.501Z,7.59
2023-11-22T15:38:11.007Z,7.59
2023-11-22T15:40:37.589Z,7.61
2023-11-22T15:43:04.295Z,7.54
2023-11-22T15:45:30.770Z,7.53
2023-11-22T15:47:57.288Z,7.51
2023-11-22T15:50:23.856Z,7.49
2023-11-22T15:52:50.487Z,7.41
2023-11-22T15:55:18.160Z,7.45
2023-11-22T15:57:44.828Z,7.39
2023-11-22T16:00:12.302Z,7.31
2023-11-22T16:02:39.098Z,7.20
2023-11-22T16:05:09.212Z,7.16
2023-11-22T16:07:36.805Z,7.11
2023-11-22T16:10:03.601Z,7.06
2023-11-22T16:12:33.362Z,7.02
2023-11-22T16:15:01.768Z,7.01
2023-11-22T16:17:28.676Z,7.01
2023-11-22T16:19:57.575Z,6.92
2023-11-22T16:22:25.067Z,6.83
2023-11-22T16:24:52.789Z,6.78
2023-11-22T16:27:19.357Z,6.71
2023-11-22T16:29:48.123Z,6.65
2023-11-22T16:32:14.752Z,6.59
2023-11-22T16:34:41.248Z,6.54
2023-11-22T16:37:08.393Z,6.41
2023-11-22T16:39:36.067Z,6.40
2023-11-22T16:42:02.771Z,6.32
2023-11-22T16:44:29.730Z,6.38
2023-11-22T16:46:56.511Z,6.35
2023-11-22T16:49:23.064Z,6.29
2023-11-22T16:51:49.655Z,6.26
2023-11-22T16:54:16.325Z,6.18
2023-11-22T16:56:42.962Z,6.20
2023-11-22T16:59:10.431Z,6.15
2023-11-22T17:01:36.941Z,6.06
2023-11-22T17:04:03.826Z,6.04
2023-11-22T17:06:30.439Z,5.99
2023-11-22T17:08:56.969Z,5.92
2023-11-22T17:11:23.996Z,5.89
2023-11-22T17:13:50.487Z,5.88
2023-11-22T17:16:17.649Z,5.86
2023-11-22T17:18:50.397Z,5.83
2023-11-22T17:21:18.264Z,5.75
2023-11-22T17:23:45.179Z,5.69
2023-11-22T17:26:12.864Z,5.64
2023-11-22T17:28:39.431Z,5.55
2023-11-22T17:31:06.317Z,5.41
2023-11-22T17:33:33.173Z,5.26
2023-11-22T17:35:59.891Z,5.22
2023-11-22T17:38:27.309Z,5.07
2023-11-22T17:40:53.809Z,5.05
2023-11-22T17:43:24.467Z,4.98
2023-11-22T17:45:51.113Z,4.90
2023-11-22T17:48:18.637Z,4.93
2023-11-22T17:50:46.051Z,4.87
2023-11-22T17:53:12.757Z,4.93
2023-11-22T17:55:39.700Z,4.96
2023-11-22T17:58:06.203Z,4.94
2023-11-22T18:00:32.730Z,4.98
2023-11-22T18:03:01.135Z,5.04
2023-11-22T18:05:28.899Z,5.03
2023-11-22T18:07:55.547Z,5.05
2023-11-22T18:10:22.891Z,4.97
2023-11-22T18:12:50.726Z,4.87
2023-11-22T18:15:17.330Z,4.95
2023-11-22T18:17:44.463Z,5.03
2023-11-22T18:20:12.368Z,5.06
2023-11-22T18:22:39.429Z,5.07
2023-11-22T18:25:09.434Z,4.95
2023-11-22T18:27:36.304Z,4.86
2023-11-22T18:30:04.945Z,4.89
2023-11-22T18:32:31.653Z,4.81
2023-11-22T18:34:58.178Z,4.77
2023-11-22T18:37:25.180Z,4.64
2023-11-22T18:39:51.715Z,4.59
2023-11-22T18:42:18.331Z,4.63
2023-11-22T18:44:45.052Z,4.69
2023-11-22T18:47:11.767Z,4.68
2023-11-22T18:49:38.353Z,4.80
2023-11-22T18:52:05.262Z,4.85
2023-11-22T18:54:32.482Z,4.91
2023-11-22T18:56:59.138Z,4.91
2023-11-22T18:59:25.723Z,4.92
2023-11-22T19:01:52.905Z,4.90
2023-11-22T19:04:19.559Z,4.87
2023-11-22T19:06:46.105Z,4.89
2023-11-22T19:09:13.186Z,4.87
2023-11-22T19:11:40.171Z,4.85
2023-11-22T19:14:06.907Z,4.89
2023-11-22T19:16:36.951Z,4.84
2023-11-22T19:19:03.482Z,4.77
2023-11-22T19:21:31.417Z,4.74
2023-11-22T19:24:01.910Z,4.77
2023-11-22T19:26:31.852Z,4.77
2023-11-22T19:28:59.537Z,4.78
2023-11-22T19:31:26.056Z,4.78
2023-11-22T19:33:52.697Z,4.80
2023-11-22T19:36:27.050Z,4.72
2023-11-22T19:38:55.251Z,4.68
2023-11-22T19:41:22.971Z,4.69
2023-11-22T19:43:49.806Z,4.74
2023-11-22T19:46:16.229Z,4.69
2023-11-22T19:48:42.846Z,4.56
2023-11-22T19:51:10.015Z,4.54
2023-11-22T19:53:39.253Z,4.44
2023-11-22T19:56:06.351Z,4.51
2023-11-22T19:58:32.909Z,4.41
2023-11-22T20:00:59.632Z,4.42
2023-11-22T20:03:29.550Z,4.41
2023-11-22T20:05:56.526Z,4.38
2023-11-22T20:08:23.081Z,4.36
2023-11-22T20:10:50.077Z,4.31
2023-11-22T20:13:19.822Z,4.26
2023-11-22T20:15:46.419Z,4.27
2023-11-22T20:18:13.091Z,4.20
2023-11-22T20:20:39.698Z,4.13
2023-11-22T20:23:07.465Z,4.07
2023-11-22T20:25:34.063Z,3.99
2023-11-22T20:28:00.617Z,4.01
2023-11-22T20:30:27.207Z,4.03
2023-11-22T20:32:53.795Z,3.94
2023-11-22T20:35:20.759Z,3.94
2023-11-22T20:37:47.241Z,3.90
2023-11-22T20:40:13.831Z,3.76
2023-11-22T20:42:40.322Z,3.81
2023-11-22T20:45:09.393Z,3.78
2023-11-22T20:47:36.256Z,3.58
2023-11-22T20:50:05.285Z,3.61
2023-11-22T20:52:31.830Z,3.54
2023-11-22T20:54:58.342Z,3.55
2023-11-22T20:57:24.981Z,3.46
2023-11-22T20:59:53.709Z,3.39
2023-11-22T21:02:20.358Z,3.32
2023-11-22T21:04:48.501Z,3.31
2023-11-22T21:07:15.013Z,3.29
2023-11-22T21:09:41.504Z,3.19
2023-11-22T21:12:08.408Z,3.16
2023-11-22T21:14:34.955Z,3.15
2023-11-22T21:17:01.573Z,3.16
2023-11-22T21:19:28.086Z,3.03
2023-11-22T21:21:54.600Z,3.02
2023-11-22T21:24:21.085Z,3.06
2023-11-22T21:26:47.749Z,2.96
2023-11-22T21:29:14.222Z,2.93
2023-11-22T21:31:40.701Z,2.88
2023-11-22T21:34:08.684Z,2.83
2023-11-22T21:36:39.618Z,2.88
2023-11-22T21:39:12.994Z,2.88
2023-11-22T21:41:53.846Z,2.88
2023-11-22T21:44:20.387Z,2.93
2023-11-22T21:46:47.028Z,2.93
2023-11-22T21:49:13.733Z,2.81
2023-11-22T21:51:40.680Z,2.85
2023-11-22T21:54:07.582Z,2.87
2023-11-22T21:56:34.797Z,2.88
2023-11-22T21:59:01.464Z,2.87
2023-11-22T22:01:28.081Z,2.82
2023-11-22T22:03:54.991Z,2.80
2023-11-22T22:06:21.566Z,2.76
2023-11-22T22:08:49.381Z,2.79
2023-11-22T22:11:16.847Z,2.81
2023-11-22T22:13:43.665Z,2.74
2023-11-22T22:16:10.882Z,2.72
2023-11-22T22:18:39.199Z,2.59
2023-11-22T22:21:06.557Z,2.62
2023-11-22T22:23:37.021Z,2.58
2023-11-22T22:26:03.734Z,2.69
2023-11-22T22:28:30.487Z,2.77
2023-11-22T22:30:57.659Z,2.60
2023-11-22T22:33:25.272Z,2.52
2023-11-22T22:35:52.055Z,2.45
2023-11-22T22:38:19.013Z,2.33
2023-11-22T22:40:45.656Z,2.25
2023-11-22T22:43:12.380Z,2.17
2023-11-22T22:45:38.869Z,2.17
2023-11-22T22:48:06.291Z,2.18
2023-11-22T22:50:33.798Z,2.25
2023-11-22T22:53:00.753Z,2.23
2023-11-22T22:55:27.253Z,2.18
2023-11-22T22:57:53.741Z,2.20
2023-11-22T23:00:37.316Z,2.24
2023-11-22T23:03:06.178Z,2.27
2023-11-22T23:05:33.152Z,2.16
2023-11-22T23:07:59.739Z,2.38
2023-11-22T23:10:26.294Z,2.32
2023-11-22T23:12:55.537Z,2.23
2023-11-22T23:15:22.382Z,2.31
2023-11-22T23:17:49.052Z,2.33
2023-11-22T23:20:17.270Z,2.36
2023-11-22T23:22:44.661Z,2.32
2023-11-22T23:25:14.268Z,2.33
2023-11-22T23:27:41.310Z,2.25
2023-11-22T23:30:12.149Z,2.32
2023-11-22T23:32:40.200Z,2.34
2023-11-22T23:35:08.769Z,2.39
2023-11-22T23:37:35.346Z,2.36
2023-11-22T23:40:10.665Z,2.38
2023-11-22T23:42:39.025Z,2.35
2023-11-22T23:45:07.866Z,2.34
2023-11-22T23:47:34.406Z,2.28
2023-11-22T23:50:00.919Z,2.26
2023-11-22T23:52:27.401Z,2.29
2023-11-22T23:54:53.909Z,2.17
2023-11-22T23:57:21.091Z,2.21
2023-11-22T23:59:48.062Z,2.23
